DAAGDAAE

Guest
Details From DAAG - Alger Houari Boumediene
To DAAE - SOUMMAM
Flight Number -
Tags generated
Created
Modified
Stats Distance 89 nm / 166 km
Max Altitude 400 ft / 122 m
Waypoints 3
Social Downloads 0
Likes 0
Share VATSIM

Download

Looking for another format? Having issues loading an existing format? Contact us
Advertisement - Login to hide

Notes

Basic altitude profile: - Ascent Rate: 9500ft/min - Ascent Speed: 250kts - Cruise Altitude: 9500ft - Cruise Speed: 280kts - Descent Rate: 1500ft/min - Descent Speed: 240kts Options: - Use NATs: yes - Use PACOTS: yes - Use low airways: yes - Use high airways: yes

Route

DAAG BJA DAAE

ID Type Via Altitude Latitude Longitude Leg Dist Tot Dist Heading (true) Name
O DAAG APT - 0 ft / 0 m 36.69752˚ 3.21308˚ - 0 nm - Alger Houari Boumediene
BJA NDB - 400 ft / 122 m 36.70667˚ 5.02472˚ 87 nm 87 nm 89° / 90° BEJAIA NDB
O DAAE APT - 0 ft / 0 m 36.71181˚ 5.06986˚ 2 nm 89 nm 82° / 82° SOUMMAM

Altitude Profile

Advertisement - Login to hide

DAAG

Details ICAO DAAG (ALG)
Name Alger Houari Boumediene
Region Algeria
Timezone Africa/Algiers (UTC+1.0)
Stats Elevation 82 ft / 25 m (AMSL)
Location 36.697521° 3.213079°
Runways 2
Magnetic Variation 1.057° E

METAR

DAAG 130000Z 22005KT 180V270 9999 -DZ FEW020TCU SCT043 11/10 Q1023

Decode

TAF

TAF DAAG 122300Z 1300/1324 28010KT 9999 FEW020 SCT040 BKN100 PROB40 TEMPO 1300/1307 5000 -RA FEW023CB

Decode

Departure Runways

ID Width Length Bearing (true) Bearing (mag) Surface Threshold Offset Overrun Length
05 197 ft / 60 m 11,459 ft / 3,493 m 52.87° 51.81° Asphalt 0 ft / 0 m 0 ft / 0 m
09 148 ft / 45 m 11,442 ft / 3,487 m 91.75° 90.69° Asphalt 0 ft / 0 m 1,017 ft / 310 m
23 197 ft / 60 m 11,459 ft / 3,493 m 232.89° 231.83° Asphalt 0 ft / 0 m 0 ft / 0 m
27 148 ft / 45 m 11,442 ft / 3,487 m 271.78° 270.72° Asphalt 0 ft / 0 m 0 ft / 0 m

DAAE

Details ICAO DAAE (BJA)
Name SOUMMAM
Region Algeria
Timezone Africa/Algiers (UTC+1.0)
Stats Elevation 20 ft / 6 m (AMSL)
Location 36.711805° 5.069862°
Runways 1
Magnetic Variation 1.445° E

METAR

DAAE 130000Z 26005KT 9999 FEW023 SCT040 BKN090 13/11 Q1021

Decode

TAF

TAF DAAE 122300Z 1300/1324 24008KT 8000 FEW020 BKN030 TEMPO 1300/1306 5000 -RA SCT020TCU

Decode

Destination Runways

ID Width Length Bearing (true) Bearing (mag) Surface Threshold Offset Overrun Length
08 148 ft / 45 m 7,831 ft / 2,387 m 80.31° 78.87° Asphalt 0 ft / 0 m 204 ft / 62 m
26 148 ft / 45 m 7,831 ft / 2,387 m 260.32° 258.88° Asphalt 0 ft / 0 m 113 ft / 34 m

Approach Navaids

Runway Type Ident Frequency Range Bearing (true) Bearing (mag) Slope Elevation
26 Localiser BJ 110.50 MHz 18 nm / 33 km 261.39° 259.95° - 20 ft / 6 m (AMSL)
26 DME BJ 110.50 MHz 18 nm / 33 km - - - 20 ft / 6 m (AMSL)

Popular Alternatives